sensor_id;sensor_type;location;lat;lon;timestamp;P1;durP1;ratioP1;P2;durP2;ratioP2
27744;SDS011;61387;48.112;8.616;2023-10-09T00:01:00;14.30;;;4.57;;
27744;SDS011;61387;48.112;8.616;2023-10-09T00:03:38;10.93;;;4.53;;
27744;SDS011;61387;48.112;8.616;2023-10-09T00:06:03;11.73;;;4.47;;
27744;SDS011;61387;48.112;8.616;2023-10-09T00:08:30;11.23;;;4.10;;
27744;SDS011;61387;48.112;8.616;2023-10-09T00:10:56;10.50;;;4.20;;
27744;SDS011;61387;48.112;8.616;2023-10-09T00:13:40;10.70;;;4.17;;
27744;SDS011;61387;48.112;8.616;2023-10-09T00:16:16;9.87;;;4.30;;
27744;SDS011;61387;48.112;8.616;2023-10-09T00:18:59;10.40;;;4.17;;
27744;SDS011;61387;48.112;8.616;2023-10-09T00:21:44;12.47;;;4.27;;
27744;SDS011;61387;48.112;8.616;2023-10-09T00:24:10;10.63;;;3.90;;
27744;SDS011;61387;48.112;8.616;2023-10-09T00:26:39;11.93;;;4.07;;
27744;SDS011;61387;48.112;8.616;2023-10-09T00:29:10;13.83;;;4.40;;
27744;SDS011;61387;48.112;8.616;2023-10-09T00:31:40;13.27;;;4.43;;
27744;SDS011;61387;48.112;8.616;2023-10-09T00:34:14;12.83;;;4.10;;
27744;SDS011;61387;48.112;8.616;2023-10-09T00:36:44;17.83;;;4.73;;
27744;SDS011;61387;48.112;8.616;2023-10-09T00:39:16;9.33;;;4.53;;
27744;SDS011;61387;48.112;8.616;2023-10-09T00:41:58;11.37;;;4.00;;
27744;SDS011;61387;48.112;8.616;2023-10-09T00:44:25;13.47;;;4.90;;
27744;SDS011;61387;48.112;8.616;2023-10-09T00:47:02;16.87;;;4.53;;
27744;SDS011;61387;48.112;8.616;2023-10-09T00:49:35;14.47;;;4.57;;
27744;SDS011;61387;48.112;8.616;2023-10-09T00:52:04;12.97;;;4.97;;
27744;SDS011;61387;48.112;8.616;2023-10-09T00:54:37;13.50;;;4.93;;
27744;SDS011;61387;48.112;8.616;2023-10-09T00:57:06;11.53;;;5.03;;
27744;SDS011;61387;48.112;8.616;2023-10-09T00:59:32;14.27;;;4.50;;
27744;SDS011;61387;48.112;8.616;2023-10-09T01:01:59;13.63;;;4.70;;
27744;SDS011;61387;48.112;8.616;2023-10-09T01:04:31;16.93;;;5.03;;
27744;SDS011;61387;48.112;8.616;2023-10-09T01:07:05;14.07;;;4.40;;
27744;SDS011;61387;48.112;8.616;2023-10-09T01:09:40;12.77;;;4.13;;
27744;SDS011;61387;48.112;8.616;2023-10-09T01:12:10;14.43;;;4.93;;
27744;SDS011;61387;48.112;8.616;2023-10-09T01:14:42;12.33;;;4.07;;
27744;SDS011;61387;48.112;8.616;2023-10-09T01:17:11;12.20;;;4.23;;
27744;SDS011;61387;48.112;8.616;2023-10-09T01:19:37;14.57;;;5.60;;
27744;SDS011;61387;48.112;8.616;2023-10-09T01:22:03;14.17;;;4.70;;
27744;SDS011;61387;48.112;8.616;2023-10-09T01:24:37;12.93;;;4.30;;
27744;SDS011;61387;48.112;8.616;2023-10-09T01:27:03;13.80;;;4.53;;
27744;SDS011;61387;48.112;8.616;2023-10-09T01:29:36;10.33;;;4.07;;
27744;SDS011;61387;48.112;8.616;2023-10-09T01:32:02;10.40;;;4.43;;
27744;SDS011;61387;48.112;8.616;2023-10-09T01:34:28;14.97;;;4.50;;
27744;SDS011;61387;48.112;8.616;2023-10-09T01:37:07;14.17;;;4.57;;
27744;SDS011;61387;48.112;8.616;2023-10-09T01:39:50;10.57;;;4.10;;
27744;SDS011;61387;48.112;8.616;2023-10-09T01:42:23;14.87;;;4.87;;
27744;SDS011;61387;48.112;8.616;2023-10-09T01:45:10;11.20;;;4.20;;
27744;SDS011;61387;48.112;8.616;2023-10-09T01:47:36;13.93;;;4.57;;
27744;SDS011;61387;48.112;8.616;2023-10-09T01:50:05;20.13;;;4.30;;
27744;SDS011;61387;48.112;8.616;2023-10-09T01:52:36;13.50;;;4.10;;
27744;SDS011;61387;48.112;8.616;2023-10-09T01:55:02;13.53;;;4.13;;
27744;SDS011;61387;48.112;8.616;2023-10-09T01:57:48;15.20;;;4.40;;
27744;SDS011;61387;48.112;8.616;2023-10-09T02:00:14;13.33;;;4.67;;
27744;SDS011;61387;48.112;8.616;2023-10-09T02:02:47;14.20;;;5.03;;
27744;SDS011;61387;48.112;8.616;2023-10-09T02:05:15;12.50;;;4.40;;
27744;SDS011;61387;48.112;8.616;2023-10-09T02:07:41;14.37;;;4.53;;
27744;SDS011;61387;48.112;8.616;2023-10-09T02:10:16;12.07;;;4.47;;
27744;SDS011;61387;48.112;8.616;2023-10-09T02:13:00;14.37;;;4.70;;
27744;SDS011;61387;48.112;8.616;2023-10-09T02:15:37;16.93;;;4.53;;
27744;SDS011;61387;48.112;8.616;2023-10-09T02:18:11;13.80;;;5.00;;
27744;SDS011;61387;48.112;8.616;2023-10-09T02:21:05;16.53;;;4.60;;
27744;SDS011;61387;48.112;8.616;2023-10-09T02:23:31;16.83;;;5.07;;
27744;SDS011;61387;48.112;8.616;2023-10-09T02:26:10;15.40;;;4.50;;
27744;SDS011;61387;48.112;8.616;2023-10-09T02:29:04;13.90;;;4.70;;
27744;SDS011;61387;48.112;8.616;2023-10-09T02:31:43;15.27;;;5.50;;
27744;SDS011;61387;48.112;8.616;2023-10-09T02:34:12;14.63;;;4.47;;
27744;SDS011;61387;48.112;8.616;2023-10-09T02:36:41;11.70;;;4.43;;
27744;SDS011;61387;48.112;8.616;2023-10-09T02:39:23;12.20;;;3.97;;
27744;SDS011;61387;48.112;8.616;2023-10-09T02:41:54;10.53;;;3.77;;
27744;SDS011;61387;48.112;8.616;2023-10-09T02:44:26;15.67;;;4.07;;
27744;SDS011;61387;48.112;8.616;2023-10-09T02:46:57;14.27;;;4.63;;
27744;SDS011;61387;48.112;8.616;2023-10-09T02:49:24;11.13;;;4.10;;
27744;SDS011;61387;48.112;8.616;2023-10-09T02:51:50;12.90;;;4.17;;
27744;SDS011;61387;48.112;8.616;2023-10-09T02:54:19;14.17;;;4.63;;
27744;SDS011;61387;48.112;8.616;2023-10-09T02:56:48;13.97;;;4.00;;
27744;SDS011;61387;48.112;8.616;2023-10-09T02:59:21;13.80;;;3.80;;
27744;SDS011;61387;48.112;8.616;2023-10-09T03:01:47;8.53;;;3.63;;
27744;SDS011;61387;48.112;8.616;2023-10-09T03:04:14;10.73;;;4.10;;
27744;SDS011;61387;48.112;8.616;2023-10-09T03:06:40;10.13;;;3.50;;
27744;SDS011;61387;48.112;8.616;2023-10-09T03:09:16;11.03;;;4.27;;
27744;SDS011;61387;48.112;8.616;2023-10-09T03:11:49;10.27;;;3.43;;
27744;SDS011;61387;48.112;8.616;2023-10-09T03:14:27;13.67;;;4.30;;
27744;SDS011;61387;48.112;8.616;2023-10-09T03:16:53;14.50;;;4.30;;
27744;SDS011;61387;48.112;8.616;2023-10-09T03:19:21;12.17;;;3.93;;
27744;SDS011;61387;48.112;8.616;2023-10-09T03:21:47;12.60;;;4.37;;
27744;SDS011;61387;48.112;8.616;2023-10-09T03:24:12;10.60;;;3.90;;
27744;SDS011;61387;48.112;8.616;2023-10-09T03:26:38;12.77;;;4.03;;
27744;SDS011;61387;48.112;8.616;2023-10-09T03:29:04;12.43;;;4.73;;
27744;SDS011;61387;48.112;8.616;2023-10-09T03:31:35;11.90;;;4.37;;
27744;SDS011;61387;48.112;8.616;2023-10-09T03:34:01;12.07;;;4.73;;
27744;SDS011;61387;48.112;8.616;2023-10-09T03:36:28;18.50;;;4.43;;
27744;SDS011;61387;48.112;8.616;2023-10-09T03:38:55;12.60;;;4.37;;
27744;SDS011;61387;48.112;8.616;2023-10-09T03:41:23;12.50;;;4.03;;
27744;SDS011;61387;48.112;8.616;2023-10-09T03:43:51;12.80;;;4.37;;
27744;SDS011;61387;48.112;8.616;2023-10-09T03:46:17;14.73;;;4.37;;
27744;SDS011;61387;48.112;8.616;2023-10-09T03:48:47;11.60;;;4.43;;
27744;SDS011;61387;48.112;8.616;2023-10-09T03:51:13;15.23;;;4.60;;
27744;SDS011;61387;48.112;8.616;2023-10-09T03:53:46;10.17;;;3.70;;
27744;SDS011;61387;48.112;8.616;2023-10-09T03:56:12;9.73;;;4.07;;
27744;SDS011;61387;48.112;8.616;2023-10-09T03:58:39;11.70;;;3.97;;
27744;SDS011;61387;48.112;8.616;2023-10-09T04:01:08;12.93;;;4.37;;
27744;SDS011;61387;48.112;8.616;2023-10-09T04:03:38;14.63;;;4.47;;
27744;SDS011;61387;48.112;8.616;2023-10-09T04:06:05;10.90;;;4.03;;
27744;SDS011;61387;48.112;8.616;2023-10-09T04:08:33;12.33;;;4.53;;
27744;SDS011;61387;48.112;8.616;2023-10-09T04:11:00;10.30;;;4.23;;
27744;SDS011;61387;48.112;8.616;2023-10-09T04:13:27;21.90;;;8.37;;
27744;SDS011;61387;48.112;8.616;2023-10-09T04:16:05;14.67;;;5.10;;
27744;SDS011;61387;48.112;8.616;2023-10-09T04:18:49;11.63;;;4.93;;
27744;SDS011;61387;48.112;8.616;2023-10-09T04:21:17;12.53;;;5.70;;
27744;SDS011;61387;48.112;8.616;2023-10-09T04:23:55;11.43;;;4.23;;
27744;SDS011;61387;48.112;8.616;2023-10-09T04:26:42;12.80;;;4.80;;
27744;SDS011;61387;48.112;8.616;2023-10-09T04:29:09;13.47;;;4.93;;
27744;SDS011;61387;48.112;8.616;2023-10-09T04:31:43;16.27;;;8.67;;
27744;SDS011;61387;48.112;8.616;2023-10-09T04:34:16;14.77;;;6.47;;
27744;SDS011;61387;48.112;8.616;2023-10-09T04:37:01;20.50;;;7.33;;
27744;SDS011;61387;48.112;8.616;2023-10-09T04:39:40;14.80;;;6.03;;
27744;SDS011;61387;48.112;8.616;2023-10-09T04:42:12;12.50;;;6.13;;
27744;SDS011;61387;48.112;8.616;2023-10-09T04:44:51;16.03;;;6.00;;
27744;SDS011;61387;48.112;8.616;2023-10-09T04:47:29;13.23;;;5.53;;
27744;SDS011;61387;48.112;8.616;2023-10-09T04:50:03;19.27;;;5.60;;
27744;SDS011;61387;48.112;8.616;2023-10-09T04:52:48;18.73;;;6.40;;
27744;SDS011;61387;48.112;8.616;2023-10-09T04:55:17;13.57;;;5.20;;
27744;SDS011;61387;48.112;8.616;2023-10-09T04:57:44;17.97;;;6.23;;
27744;SDS011;61387;48.112;8.616;2023-10-09T05:00:25;18.80;;;6.00;;
27744;SDS011;61387;48.112;8.616;2023-10-09T05:02:55;17.13;;;5.27;;
27744;SDS011;61387;48.112;8.616;2023-10-09T05:05:38;12.97;;;5.03;;
27744;SDS011;61387;48.112;8.616;2023-10-09T05:08:11;14.30;;;4.77;;
27744;SDS011;61387;48.112;8.616;2023-10-09T05:10:48;12.80;;;4.93;;
27744;SDS011;61387;48.112;8.616;2023-10-09T05:13:35;10.37;;;4.10;;
27744;SDS011;61387;48.112;8.616;2023-10-09T05:16:04;11.20;;;4.27;;
27744;SDS011;61387;48.112;8.616;2023-10-09T05:18:54;14.70;;;4.40;;
27744;SDS011;61387;48.112;8.616;2023-10-09T05:21:33;8.43;;;3.27;;
27744;SDS011;61387;48.112;8.616;2023-10-09T05:24:02;12.53;;;4.23;;
27744;SDS011;61387;48.112;8.616;2023-10-09T05:26:38;11.13;;;4.17;;
27744;SDS011;61387;48.112;8.616;2023-10-09T05:29:11;9.60;;;4.10;;
27744;SDS011;61387;48.112;8.616;2023-10-09T05:31:59;16.17;;;4.80;;
27744;SDS011;61387;48.112;8.616;2023-10-09T05:34:38;11.53;;;4.53;;
27744;SDS011;61387;48.112;8.616;2023-10-09T05:37:22;11.63;;;4.17;;
27744;SDS011;61387;48.112;8.616;2023-10-09T05:39:57;13.27;;;6.30;;
27744;SDS011;61387;48.112;8.616;2023-10-09T05:42:26;20.67;;;10.30;;
27744;SDS011;61387;48.112;8.616;2023-10-09T05:45:01;13.00;;;6.47;;
27744;SDS011;61387;48.112;8.616;2023-10-09T05:47:46;13.00;;;4.70;;
27744;SDS011;61387;48.112;8.616;2023-10-09T05:50:26;14.03;;;5.20;;
27744;SDS011;61387;48.112;8.616;2023-10-09T05:52:52;17.00;;;4.77;;
27744;SDS011;61387;48.112;8.616;2023-10-09T05:55:20;16.67;;;5.20;;
27744;SDS011;61387;48.112;8.616;2023-10-09T05:57:50;23.73;;;5.80;;
27744;SDS011;61387;48.112;8.616;2023-10-09T06:00:34;20.37;;;6.23;;
27744;SDS011;61387;48.112;8.616;2023-10-09T06:03:32;14.23;;;5.27;;
27744;SDS011;61387;48.112;8.616;2023-10-09T06:06:17;13.97;;;4.70;;
27744;SDS011;61387;48.112;8.616;2023-10-09T06:09:04;12.27;;;4.87;;
27744;SDS011;61387;48.112;8.616;2023-10-09T06:11:44;14.20;;;5.17;;
27744;SDS011;61387;48.112;8.616;2023-10-09T06:14:13;14.67;;;6.00;;
27744;SDS011;61387;48.112;8.616;2023-10-09T06:16:49;17.43;;;5.20;;
27744;SDS011;61387;48.112;8.616;2023-10-09T06:19:22;11.83;;;5.20;;
27744;SDS011;61387;48.112;8.616;2023-10-09T06:21:51;12.90;;;5.00;;
27744;SDS011;61387;48.112;8.616;2023-10-09T06:24:18;15.30;;;5.73;;
27744;SDS011;61387;48.112;8.616;2023-10-09T06:26:44;14.43;;;4.97;;
27744;SDS011;61387;48.112;8.616;2023-10-09T06:29:37;14.30;;;5.20;;
27744;SDS011;61387;48.112;8.616;2023-10-09T06:32:10;15.20;;;5.70;;
27744;SDS011;61387;48.112;8.616;2023-10-09T06:35:00;16.13;;;5.53;;
27744;SDS011;61387;48.112;8.616;2023-10-09T06:37:42;14.10;;;8.50;;
27744;SDS011;61387;48.112;8.616;2023-10-09T06:40:30;13.80;;;6.70;;
27744;SDS011;61387;48.112;8.616;2023-10-09T06:43:05;15.97;;;5.83;;
27744;SDS011;61387;48.112;8.616;2023-10-09T06:45:37;17.20;;;6.00;;
27744;SDS011;61387;48.112;8.616;2023-10-09T06:48:12;13.87;;;6.03;;
27744;SDS011;61387;48.112;8.616;2023-10-09T06:50:57;17.33;;;6.27;;
27744;SDS011;61387;48.112;8.616;2023-10-09T06:53:33;17.93;;;6.47;;
27744;SDS011;61387;48.112;8.616;2023-10-09T06:58:59;19.50;;;5.97;;
27744;SDS011;61387;48.112;8.616;2023-10-09T07:01:39;15.53;;;5.70;;
27744;SDS011;61387;48.112;8.616;2023-10-09T07:04:08;16.63;;;6.00;;
27744;SDS011;61387;48.112;8.616;2023-10-09T07:06:52;17.00;;;5.70;;
27744;SDS011;61387;48.112;8.616;2023-10-09T07:09:22;15.47;;;6.27;;
27744;SDS011;61387;48.112;8.616;2023-10-09T07:11:50;16.03;;;6.50;;
27744;SDS011;61387;48.112;8.616;2023-10-09T07:14:23;12.20;;;5.17;;
27744;SDS011;61387;48.112;8.616;2023-10-09T07:17:07;22.73;;;5.90;;
27744;SDS011;61387;48.112;8.616;2023-10-09T07:19:52;16.63;;;5.87;;
27744;SDS011;61387;48.112;8.616;2023-10-09T07:22:18;18.33;;;5.53;;
27744;SDS011;61387;48.112;8.616;2023-10-09T07:24:50;25.13;;;5.90;;
27744;SDS011;61387;48.112;8.616;2023-10-09T07:27:30;18.37;;;6.13;;
27744;SDS011;61387;48.112;8.616;2023-10-09T07:30:11;17.50;;;6.37;;
27744;SDS011;61387;48.112;8.616;2023-10-09T07:33:06;13.53;;;5.10;;
27744;SDS011;61387;48.112;8.616;2023-10-09T07:35:33;15.20;;;5.30;;
27744;SDS011;61387;48.112;8.616;2023-10-09T07:38:08;26.60;;;6.07;;
27744;SDS011;61387;48.112;8.616;2023-10-09T07:40:38;15.47;;;4.83;;
27744;SDS011;61387;48.112;8.616;2023-10-09T07:43:23;11.47;;;4.90;;
27744;SDS011;61387;48.112;8.616;2023-10-09T07:46:18;17.23;;;4.93;;
27744;SDS011;61387;48.112;8.616;2023-10-09T07:49:04;16.50;;;5.90;;
27744;SDS011;61387;48.112;8.616;2023-10-09T07:51:39;12.17;;;4.93;;
27744;SDS011;61387;48.112;8.616;2023-10-09T07:54:12;13.00;;;4.70;;
27744;SDS011;61387;48.112;8.616;2023-10-09T07:56:56;14.27;;;4.73;;
27744;SDS011;61387;48.112;8.616;2023-10-09T07:59:33;13.70;;;5.30;;
27744;SDS011;61387;48.112;8.616;2023-10-09T08:02:07;15.03;;;4.90;;
27744;SDS011;61387;48.112;8.616;2023-10-09T08:04:38;12.90;;;4.97;;
27744;SDS011;61387;48.112;8.616;2023-10-09T08:07:06;12.63;;;5.30;;
27744;SDS011;61387;48.112;8.616;2023-10-09T08:09:33;15.50;;;5.63;;
27744;SDS011;61387;48.112;8.616;2023-10-09T08:12:14;16.90;;;5.50;;
27744;SDS011;61387;48.112;8.616;2023-10-09T08:14:59;15.63;;;4.97;;
27744;SDS011;61387;48.112;8.616;2023-10-09T08:17:46;19.97;;;5.47;;
27744;SDS011;61387;48.112;8.616;2023-10-09T08:20:24;18.30;;;5.40;;
27744;SDS011;61387;48.112;8.616;2023-10-09T08:22:55;12.83;;;4.87;;
27744;SDS011;61387;48.112;8.616;2023-10-09T08:25:21;13.62;;;5.25;;
27744;SDS011;61387;48.112;8.616;2023-10-09T08:28:15;12.43;;;4.70;;
27744;SDS011;61387;48.112;8.616;2023-10-09T08:30:59;14.02;;;5.07;;
27744;SDS011;61387;48.112;8.616;2023-10-09T08:33:29;13.45;;;4.25;;
27744;SDS011;61387;48.112;8.616;2023-10-09T08:36:09;12.73;;;4.00;;
27744;SDS011;61387;48.112;8.616;2023-10-09T08:38:39;16.25;;;5.07;;
27744;SDS011;61387;48.112;8.616;2023-10-09T08:41:07;16.05;;;5.15;;
27744;SDS011;61387;48.112;8.616;2023-10-09T08:43:48;18.45;;;5.12;;
27744;SDS011;61387;48.112;8.616;2023-10-09T08:46:24;14.77;;;4.78;;
27744;SDS011;61387;48.112;8.616;2023-10-09T08:48:54;12.20;;;3.85;;
27744;SDS011;61387;48.112;8.616;2023-10-09T08:51:21;15.27;;;4.10;;
27744;SDS011;61387;48.112;8.616;2023-10-09T08:53:49;13.65;;;4.22;;
27744;SDS011;61387;48.112;8.616;2023-10-09T08:56:17;18.47;;;4.10;;
27744;SDS011;61387;48.112;8.616;2023-10-09T08:58:57;16.65;;;4.20;;
27744;SDS011;61387;48.112;8.616;2023-10-09T09:01:27;16.95;;;4.30;;
27744;SDS011;61387;48.112;8.616;2023-10-09T09:03:57;15.57;;;4.40;;
27744;SDS011;61387;48.112;8.616;2023-10-09T09:06:24;16.87;;;4.62;;
27744;SDS011;61387;48.112;8.616;2023-10-09T09:08:50;14.20;;;3.50;;
27744;SDS011;61387;48.112;8.616;2023-10-09T09:11:24;14.80;;;4.12;;
27744;SDS011;61387;48.112;8.616;2023-10-09T09:16:24;13.82;;;4.25;;
27744;SDS011;61387;48.112;8.616;2023-10-09T09:19:00;17.23;;;4.30;;
27744;SDS011;61387;48.112;8.616;2023-10-09T09:21:34;16.67;;;4.25;;
27744;SDS011;61387;48.112;8.616;2023-10-09T09:24:05;16.65;;;3.90;;
27744;SDS011;61387;48.112;8.616;2023-10-09T09:26:55;15.35;;;4.32;;
27744;SDS011;61387;48.112;8.616;2023-10-09T09:32:03;14.32;;;4.55;;
27744;SDS011;61387;48.112;8.616;2023-10-09T09:34:50;19.00;;;4.07;;
27744;SDS011;61387;48.112;8.616;2023-10-09T09:37:20;14.75;;;4.30;;
27744;SDS011;61387;48.112;8.616;2023-10-09T09:39:47;11.55;;;4.10;;
27744;SDS011;61387;48.112;8.616;2023-10-09T09:42:16;20.30;;;5.05;;
27744;SDS011;61387;48.112;8.616;2023-10-09T09:44:49;17.83;;;4.85;;
27744;SDS011;61387;48.112;8.616;2023-10-09T09:47:16;16.25;;;4.05;;
27744;SDS011;61387;48.112;8.616;2023-10-09T09:50:02;15.65;;;4.53;;
27744;SDS011;61387;48.112;8.616;2023-10-09T09:52:38;14.82;;;3.92;;
27744;SDS011;61387;48.112;8.616;2023-10-09T09:55:04;17.67;;;4.87;;
27744;SDS011;61387;48.112;8.616;2023-10-09T09:57:39;15.60;;;4.43;;
27744;SDS011;61387;48.112;8.616;2023-10-09T10:00:06;16.62;;;4.00;;
27744;SDS011;61387;48.112;8.616;2023-10-09T10:02:51;18.02;;;4.80;;
27744;SDS011;61387;48.112;8.616;2023-10-09T10:05:21;16.90;;;4.22;;
27744;SDS011;61387;48.112;8.616;2023-10-09T10:07:47;18.37;;;3.97;;
27744;SDS011;61387;48.112;8.616;2023-10-09T10:16:11;16.20;;;4.07;;
27744;SDS011;61387;48.112;8.616;2023-10-09T10:19:02;12.82;;;3.55;;
27744;SDS011;61387;48.112;8.616;2023-10-09T10:21:41;17.33;;;4.00;;
27744;SDS011;61387;48.112;8.616;2023-10-09T10:27:14;15.75;;;4.35;;
27744;SDS011;61387;48.112;8.616;2023-10-09T10:30:34;14.23;;;4.57;;
27744;SDS011;61387;48.112;8.616;2023-10-09T10:35:16;16.37;;;4.45;;
27744;SDS011;61387;48.112;8.616;2023-10-09T10:37:57;16.77;;;3.92;;
27744;SDS011;61387;48.112;8.616;2023-10-09T10:40:40;17.85;;;4.53;;
27744;SDS011;61387;48.112;8.616;2023-10-09T10:43:17;17.10;;;4.37;;
27744;SDS011;61387;48.112;8.616;2023-10-09T10:48:33;19.00;;;4.20;;
27744;SDS011;61387;48.112;8.616;2023-10-09T10:51:04;17.20;;;4.35;;
27744;SDS011;61387;48.112;8.616;2023-10-09T10:53:30;16.67;;;4.50;;
27744;SDS011;61387;48.112;8.616;2023-10-09T10:56:12;17.85;;;3.47;;
27744;SDS011;61387;48.112;8.616;2023-10-09T10:58:41;18.10;;;3.78;;
27744;SDS011;61387;48.112;8.616;2023-10-09T11:01:18;17.58;;;3.95;;
27744;SDS011;61387;48.112;8.616;2023-10-09T11:03:49;16.02;;;3.97;;
27744;SDS011;61387;48.112;8.616;2023-10-09T11:06:30;13.62;;;3.55;;
27744;SDS011;61387;48.112;8.616;2023-10-09T11:09:03;19.33;;;4.30;;
27744;SDS011;61387;48.112;8.616;2023-10-09T11:11:50;17.48;;;4.43;;
27744;SDS011;61387;48.112;8.616;2023-10-09T11:14:20;13.00;;;4.30;;
27744;SDS011;61387;48.112;8.616;2023-10-09T11:16:49;18.40;;;4.32;;
27744;SDS011;61387;48.112;8.616;2023-10-09T11:19:19;15.77;;;3.85;;
27744;SDS011;61387;48.112;8.616;2023-10-09T11:21:52;20.83;;;4.18;;
27744;SDS011;61387;48.112;8.616;2023-10-09T11:24:45;16.73;;;4.03;;
27744;SDS011;61387;48.112;8.616;2023-10-09T11:27:25;19.48;;;4.05;;
27744;SDS011;61387;48.112;8.616;2023-10-09T11:29:57;13.60;;;4.15;;
27744;SDS011;61387;48.112;8.616;2023-10-09T11:32:30;16.90;;;3.85;;
27744;SDS011;61387;48.112;8.616;2023-10-09T11:35:13;22.52;;;4.03;;
27744;SDS011;61387;48.112;8.616;2023-10-09T11:37:45;12.48;;;3.78;;
27744;SDS011;61387;48.112;8.616;2023-10-09T11:40:31;16.92;;;4.07;;
27744;SDS011;61387;48.112;8.616;2023-10-09T11:43:16;13.52;;;3.97;;
27744;SDS011;61387;48.112;8.616;2023-10-09T11:45:41;15.57;;;3.53;;
27744;SDS011;61387;48.112;8.616;2023-10-09T11:48:19;18.60;;;3.62;;
27744;SDS011;61387;48.112;8.616;2023-10-09T11:51:12;16.17;;;4.07;;
27744;SDS011;61387;48.112;8.616;2023-10-09T11:53:44;15.23;;;4.20;;
27744;SDS011;61387;48.112;8.616;2023-10-09T11:56:13;20.35;;;3.47;;
27744;SDS011;61387;48.112;8.616;2023-10-09T11:58:42;15.05;;;3.75;;
27744;SDS011;61387;48.112;8.616;2023-10-09T12:01:14;15.07;;;3.70;;
27744;SDS011;61387;48.112;8.616;2023-10-09T12:03:42;17.02;;;5.20;;
27744;SDS011;61387;48.112;8.616;2023-10-09T12:06:09;14.25;;;3.95;;
27744;SDS011;61387;48.112;8.616;2023-10-09T12:08:39;13.10;;;3.95;;
27744;SDS011;61387;48.112;8.616;2023-10-09T12:11:06;15.15;;;3.97;;
27744;SDS011;61387;48.112;8.616;2023-10-09T12:13:37;14.55;;;3.90;;
27744;SDS011;61387;48.112;8.616;2023-10-09T12:16:07;19.73;;;3.95;;
27744;SDS011;61387;48.112;8.616;2023-10-09T12:18:36;15.93;;;4.28;;
27744;SDS011;61387;48.112;8.616;2023-10-09T12:21:05;15.05;;;4.47;;
27744;SDS011;61387;48.112;8.616;2023-10-09T12:23:31;20.53;;;4.37;;
27744;SDS011;61387;48.112;8.616;2023-10-09T12:26:05;17.75;;;4.47;;
27744;SDS011;61387;48.112;8.616;2023-10-09T12:28:39;12.80;;;3.97;;
27744;SDS011;61387;48.112;8.616;2023-10-09T12:31:05;19.57;;;3.80;;
27744;SDS011;61387;48.112;8.616;2023-10-09T12:33:31;16.42;;;4.18;;
27744;SDS011;61387;48.112;8.616;2023-10-09T12:35:57;16.27;;;3.97;;
27744;SDS011;61387;48.112;8.616;2023-10-09T12:38:26;16.85;;;3.65;;
27744;SDS011;61387;48.112;8.616;2023-10-09T12:41:02;15.65;;;3.78;;
27744;SDS011;61387;48.112;8.616;2023-10-09T12:43:33;10.90;;;3.50;;
27744;SDS011;61387;48.112;8.616;2023-10-09T12:46:06;10.50;;;3.30;;
27744;SDS011;61387;48.112;8.616;2023-10-09T12:48:32;11.30;;;3.40;;
27744;SDS011;61387;48.112;8.616;2023-10-09T12:50:58;13.60;;;4.30;;
27744;SDS011;61387;48.112;8.616;2023-10-09T12:53:31;13.10;;;3.25;;
27744;SDS011;61387;48.112;8.616;2023-10-09T12:55:57;18.05;;;3.78;;
27744;SDS011;61387;48.112;8.616;2023-10-09T12:58:23;12.33;;;3.33;;
27744;SDS011;61387;48.112;8.616;2023-10-09T13:00:52;15.07;;;4.18;;
27744;SDS011;61387;48.112;8.616;2023-10-09T13:03:18;18.87;;;4.12;;
27744;SDS011;61387;48.112;8.616;2023-10-09T13:05:51;11.68;;;3.90;;
27744;SDS011;61387;48.112;8.616;2023-10-09T13:08:20;19.02;;;3.97;;
27744;SDS011;61387;48.112;8.616;2023-10-09T13:10:55;15.20;;;4.32;;
27744;SDS011;61387;48.112;8.616;2023-10-09T13:13:27;13.65;;;3.47;;
27744;SDS011;61387;48.112;8.616;2023-10-09T13:16:05;18.25;;;4.22;;
27744;SDS011;61387;48.112;8.616;2023-10-09T13:18:39;17.27;;;3.42;;
27744;SDS011;61387;48.112;8.616;2023-10-09T13:21:05;15.23;;;4.12;;
27744;SDS011;61387;48.112;8.616;2023-10-09T13:23:31;15.83;;;3.77;;
27744;SDS011;61387;48.112;8.616;2023-10-09T13:26:05;15.85;;;4.47;;
27744;SDS011;61387;48.112;8.616;2023-10-09T13:28:42;15.88;;;4.12;;
27744;SDS011;61387;48.112;8.616;2023-10-09T13:31:10;12.70;;;4.00;;
27744;SDS011;61387;48.112;8.616;2023-10-09T13:33:39;12.48;;;4.35;;
27744;SDS011;61387;48.112;8.616;2023-10-09T13:36:05;21.70;;;7.68;;
27744;SDS011;61387;48.112;8.616;2023-10-09T13:38:41;12.95;;;3.58;;
27744;SDS011;61387;48.112;8.616;2023-10-09T13:41:11;13.30;;;3.30;;
27744;SDS011;61387;48.112;8.616;2023-10-09T13:43:42;19.70;;;4.10;;
27744;SDS011;61387;48.112;8.616;2023-10-09T13:46:12;15.13;;;3.60;;
27744;SDS011;61387;48.112;8.616;2023-10-09T13:48:41;20.08;;;4.05;;
27744;SDS011;61387;48.112;8.616;2023-10-09T13:51:11;19.37;;;3.83;;
27744;SDS011;61387;48.112;8.616;2023-10-09T13:53:47;14.35;;;3.50;;
27744;SDS011;61387;48.112;8.616;2023-10-09T13:56:13;10.00;;;3.72;;
27744;SDS011;61387;48.112;8.616;2023-10-09T13:58:43;11.82;;;3.22;;
27744;SDS011;61387;48.112;8.616;2023-10-09T14:01:09;13.73;;;3.45;;
27744;SDS011;61387;48.112;8.616;2023-10-09T14:03:35;15.30;;;3.55;;
27744;SDS011;61387;48.112;8.616;2023-10-09T14:06:03;14.70;;;3.20;;
27744;SDS011;61387;48.112;8.616;2023-10-09T14:08:44;16.27;;;3.92;;
27744;SDS011;61387;48.112;8.616;2023-10-09T14:11:10;15.77;;;3.93;;
27744;SDS011;61387;48.112;8.616;2023-10-09T14:13:38;12.10;;;3.58;;
27744;SDS011;61387;48.112;8.616;2023-10-09T14:16:05;15.52;;;4.07;;
27744;SDS011;61387;48.112;8.616;2023-10-09T14:18:32;22.83;;;3.92;;
27744;SDS011;61387;48.112;8.616;2023-10-09T14:21:01;20.50;;;4.12;;
27744;SDS011;61387;48.112;8.616;2023-10-09T14:23:35;16.15;;;3.55;;
27744;SDS011;61387;48.112;8.616;2023-10-09T14:26:00;16.33;;;3.23;;
27744;SDS011;61387;48.112;8.616;2023-10-09T14:28:27;12.15;;;3.30;;
27744;SDS011;61387;48.112;8.616;2023-10-09T14:30:54;12.57;;;3.35;;
27744;SDS011;61387;48.112;8.616;2023-10-09T14:33:24;17.98;;;4.15;;
27744;SDS011;61387;48.112;8.616;2023-10-09T14:35:52;12.70;;;3.37;;
27744;SDS011;61387;48.112;8.616;2023-10-09T14:38:20;15.65;;;3.47;;
27744;SDS011;61387;48.112;8.616;2023-10-09T14:40:52;16.20;;;3.90;;
27744;SDS011;61387;48.112;8.616;2023-10-09T14:43:22;15.82;;;3.70;;
27744;SDS011;61387;48.112;8.616;2023-10-09T14:45:53;17.17;;;4.00;;
27744;SDS011;61387;48.112;8.616;2023-10-09T14:48:19;16.62;;;3.90;;
27744;SDS011;61387;48.112;8.616;2023-10-09T14:50:53;18.20;;;6.60;;
27744;SDS011;61387;48.112;8.616;2023-10-09T14:53:22;14.50;;;4.23;;
27744;SDS011;61387;48.112;8.616;2023-10-09T14:55:58;17.52;;;4.95;;
27744;SDS011;61387;48.112;8.616;2023-10-09T14:58:28;13.25;;;3.65;;
27744;SDS011;61387;48.112;8.616;2023-10-09T15:00:55;13.80;;;3.33;;
27744;SDS011;61387;48.112;8.616;2023-10-09T15:03:22;14.10;;;3.33;;
27744;SDS011;61387;48.112;8.616;2023-10-09T15:05:48;16.92;;;3.42;;
27744;SDS011;61387;48.112;8.616;2023-10-09T15:08:14;13.25;;;3.67;;
27744;SDS011;61387;48.112;8.616;2023-10-09T15:10:49;13.70;;;3.80;;
27744;SDS011;61387;48.112;8.616;2023-10-09T15:13:17;20.00;;;4.30;;
27744;SDS011;61387;48.112;8.616;2023-10-09T15:15:43;12.75;;;4.22;;
27744;SDS011;61387;48.112;8.616;2023-10-09T15:18:09;16.87;;;4.00;;
27744;SDS011;61387;48.112;8.616;2023-10-09T15:20:39;18.90;;;3.95;;
27744;SDS011;61387;48.112;8.616;2023-10-09T15:23:05;14.40;;;4.20;;
27744;SDS011;61387;48.112;8.616;2023-10-09T15:25:32;12.32;;;3.85;;
27744;SDS011;61387;48.112;8.616;2023-10-09T15:27:59;20.30;;;4.10;;
27744;SDS011;61387;48.112;8.616;2023-10-09T15:30:25;15.80;;;4.57;;
27744;SDS011;61387;48.112;8.616;2023-10-09T15:32:52;16.62;;;4.20;;